Time;durP1;ratioP1;P1;durP2;ratioP2;P2;SDS_P1;SDS_P2;PMS_P1;PMS_P2;Temp;Humidity;BMP_temperature;BMP_pressure;BME280_temperature;BME280_humidity;BME280_pressure;Samples;Min_cycle;Max_cycle;Signal;HPM_P1;HPM_P2
2023/08/20 00:00:11;;;;;;;9.98;5.07;;;;;;;;;;5048403;28;20059;-67
2023/08/20 00:02:40;;;;;;;12.63;5.47;;;;;;;;;;5049702;28;20048;-67
2023/08/20 00:05:08;;;;;;;9.65;5.65;;;;;;;;;;5049725;28;20129;-66
2023/08/20 00:07:35;;;;;;;6.97;5.10;;;;;;;;;;5049102;28;20052;-67
2023/08/20 00:10:04;;;;;;;8.02;5.35;;;;;;;;;;5048939;28;20049;-66
2023/08/20 00:12:31;;;;;;;13.45;5.85;;;;;;;;;;5049189;28;20049;-66
2023/08/20 00:15:04;;;;;;;9.27;5.88;;;;;;;;;;5049654;28;20049;-67
2023/08/20 00:17:32;;;;;;;8.85;5.28;;;;;;;;;;5048937;28;20041;-66
2023/08/20 00:19:59;;;;;;;7.55;5.07;;;;;;;;;;5048914;28;20049;-66
2023/08/20 00:22:26;;;;;;;7.10;5.70;;;;;;;;;;5049405;28;20049;-67
2023/08/20 00:24:55;;;;;;;12.52;5.68;;;;;;;;;;5049356;28;20049;-66
2023/08/20 00:27:21;;;;;;;9.98;5.72;;;;;;;;;;5034538;28;20389;-67
2023/08/20 00:29:49;;;;;;;10.90;6.57;;;;;;;;;;5027973;28;20078;-67
2023/08/20 00:32:16;;;;;;;10.88;6.03;;;;;;;;;;5028837;28;20053;-67
2023/08/20 00:34:43;;;;;;;10.50;5.50;;;;;;;;;;5028659;28;20061;-67
2023/08/20 00:37:09;;;;;;;9.05;5.38;;;;;;;;;;5029791;28;20064;-67
2023/08/20 00:39:36;;;;;;;9.55;5.75;;;;;;;;;;5028271;28;20411;-67
2023/08/20 00:42:04;;;;;;;9.07;5.60;;;;;;;;;;5029557;28;20056;-67
2023/08/20 00:44:31;;;;;;;8.38;5.68;;;;;;;;;;5028875;28;20050;-67
2023/08/20 00:47:01;;;;;;;8.02;5.63;;;;;;;;;;5040041;28;20045;-67
2023/08/20 00:49:27;;;;;;;8.80;5.85;;;;;;;;;;5052331;28;20055;-66
2023/08/20 00:51:55;;;;;;;8.55;5.53;;;;;;;;;;5052870;28;20434;-67
2023/08/20 00:54:23;;;;;;;10.13;5.90;;;;;;;;;;5052818;28;20448;-67
2023/08/20 00:56:50;;;;;;;7.05;5.90;;;;;;;;;;5035512;28;20635;-66
2023/08/20 00:59:18;;;;;;;12.10;5.70;;;;;;;;;;5033513;28;20041;-66
2023/08/20 01:01:44;;;;;;;8.93;5.60;;;;;;;;;;5031420;28;20049;-67
2023/08/20 01:04:12;;;;;;;9.90;5.72;;;;;;;;;;5032902;28;20613;-66
2023/08/20 01:06:48;;;;;;;8.80;6.32;;;;;;;;;;5032412;28;20504;-67
2023/08/20 01:09:23;;;;;;;10.35;6.13;;;;;;;;;;5032956;28;20407;-67
2023/08/20 01:11:55;;;;;;;10.95;6.32;;;;;;;;;;5031506;28;20140;-67
2023/08/20 01:14:22;;;;;;;;;;;;;;;;;;5033046;28;20053;-67
2023/08/20 01:16:49;;;;;;;9.18;5.15;;;;;;;;;;5031941;28;19925;-67
2023/08/20 01:19:19;;;;;;;12.63;5.28;;;;;;;;;;5032429;28;20095;-67
2023/08/20 01:22:04;;;;;;;8.55;5.50;;;;;;;;;;5031952;28;20149;-66
2023/08/20 01:24:44;;;;;;;7.95;5.35;;;;;;;;;;5032257;28;20510;-67
2023/08/20 01:27:28;;;;;;;10.82;5.13;;;;;;;;;;5045693;28;20051;-67
2023/08/20 01:29:56;;;;;;;9.57;5.43;;;;;;;;;;5051173;28;20048;-67
2023/08/20 01:32:23;;;;;;;9.88;5.32;;;;;;;;;;5052801;28;20055;-67
2023/08/20 01:34:50;;;;;;;10.77;6.35;;;;;;;;;;5051730;28;20566;-67
2023/08/20 01:37:17;;;;;;;8.88;6.03;;;;;;;;;;5051955;28;20435;-66
2023/08/20 01:39:43;;;;;;;7.22;5.53;;;;;;;;;;5038019;28;20491;-67
2023/08/20 01:42:10;;;;;;;16.88;5.68;;;;;;;;;;5042427;28;20478;-67
2023/08/20 01:44:37;;;;;;;7.15;5.32;;;;;;;;;;5052904;28;20486;-67
2023/08/20 01:47:06;;;;;;;8.88;5.20;;;;;;;;;;5053155;28;20114;-67
2023/08/20 01:49:32;;;;;;;6.07;5.10;;;;;;;;;;5050854;28;20596;-67
2023/08/20 01:51:59;;;;;;;9.20;5.32;;;;;;;;;;5051545;28;20049;-67
2023/08/20 01:54:26;;;;;;;10.07;5.38;;;;;;;;;;5051629;28;20451;-67
2023/08/20 01:56:52;;;;;;;8.93;5.50;;;;;;;;;;5050995;28;20487;-67
2023/08/20 01:59:19;;;;;;;7.20;5.05;;;;;;;;;;5051798;28;20060;-66
2023/08/20 02:01:46;;;;;;;9.00;4.95;;;;;;;;;;5050291;28;20506;-66
2023/08/20 02:04:14;;;;;;;9.50;5.43;;;;;;;;;;5051448;28;20491;-67
2023/08/20 02:06:40;;;;;;;13.63;5.50;;;;;;;;;;5051112;28;20052;-67
2023/08/20 02:09:07;;;;;;;7.63;5.57;;;;;;;;;;5051635;28;20491;-67
2023/08/20 02:11:35;;;;;;;8.85;5.78;;;;;;;;;;5043995;28;20051;-67
2023/08/20 02:14:02;;;;;;;10.52;5.35;;;;;;;;;;5050851;28;20045;-67
2023/08/20 02:16:29;;;;;;;12.63;5.70;;;;;;;;;;5051390;28;20114;-67
2023/08/20 02:18:55;;;;;;;7.95;4.30;;;;;;;;;;5050830;28;20434;-67
2023/08/20 02:21:23;;;;;;;8.75;5.38;;;;;;;;;;5050633;28;20045;-67
2023/08/20 02:23:50;;;;;;;8.57;4.90;;;;;;;;;;5050934;28;20051;-67
2023/08/20 02:26:16;;;;;;;9.07;4.72;;;;;;;;;;5051056;28;20049;-67
2023/08/20 02:28:43;;;;;;;5.60;4.50;;;;;;;;;;5050757;28;20231;-67
2023/08/20 02:31:09;;;;;;;10.73;6.15;;;;;;;;;;5044111;28;20037;-66
2023/08/20 02:33:36;;;;;;;6.43;5.35;;;;;;;;;;5030967;28;20140;-67
2023/08/20 02:36:03;;;;;;;9.13;4.85;;;;;;;;;;5030899;28;20045;-68
2023/08/20 02:38:31;;;;;;;6.80;4.72;;;;;;;;;;5031591;28;20045;-67
2023/08/20 02:40:58;;;;;;;8.48;5.40;;;;;;;;;;5029062;28;20044;-67
2023/08/20 02:43:25;;;;;;;11.20;5.07;;;;;;;;;;5030942;28;20049;-67
2023/08/20 02:45:51;;;;;;;9.25;5.63;;;;;;;;;;5030291;28;20045;-67
2023/08/20 02:48:19;;;;;;;6.20;4.90;;;;;;;;;;5030897;28;20203;-66
2023/08/20 02:50:46;;;;;;;7.38;5.47;;;;;;;;;;5029370;28;20075;-66
2023/08/20 02:53:12;;;;;;;6.57;5.15;;;;;;;;;;5030511;28;20045;-67
2023/08/20 02:55:40;;;;;;;7.38;5.60;;;;;;;;;;5030262;28;20052;-67
2023/08/20 02:58:08;;;;;;;9.80;6.00;;;;;;;;;;5030088;28;20060;-67
2023/08/20 03:00:35;;;;;;;7.28;4.88;;;;;;;;;;5030641;28;20145;-67
2023/08/20 03:03:03;;;;;;;8.50;4.93;;;;;;;;;;5050074;28;20049;-67
2023/08/20 03:05:30;;;;;;;5.57;5.07;;;;;;;;;;5050370;28;20091;-66
2023/08/20 03:07:56;;;;;;;7.78;5.80;;;;;;;;;;5049567;28;20049;-67
2023/08/20 03:10:23;;;;;;;7.28;5.03;;;;;;;;;;5048750;28;20045;-67
2023/08/20 03:12:51;;;;;;;6.10;4.78;;;;;;;;;;5049482;28;20047;-67
2023/08/20 03:15:17;;;;;;;7.13;5.47;;;;;;;;;;5050231;28;20060;-67
2023/08/20 03:17:44;;;;;;;10.35;5.32;;;;;;;;;;5050308;28;20055;-67
2023/08/20 03:20:12;;;;;;;8.45;4.82;;;;;;;;;;5049052;28;20465;-66
2023/08/20 03:22:39;;;;;;;10.07;5.68;;;;;;;;;;5050345;28;20076;-67
2023/08/20 03:25:06;;;;;;;7.28;5.22;;;;;;;;;;5049926;28;20063;-66
2023/08/20 03:27:33;;;;;;;8.23;6.10;;;;;;;;;;5049790;28;20055;-66
2023/08/20 03:30:01;;;;;;;5.80;5.15;;;;;;;;;;5048982;28;20048;-66
2023/08/20 03:32:27;;;;;;;8.88;5.60;;;;;;;;;;5050164;28;20060;-66
2023/08/20 03:34:55;;;;;;;8.02;5.30;;;;;;;;;;5049459;28;20409;-66
2023/08/20 03:37:22;;;;;;;6.18;5.10;;;;;;;;;;5049804;28;20451;-67
2023/08/20 03:39:49;;;;;;;5.40;4.82;;;;;;;;;;5048704;28;20128;-67
2023/08/20 03:42:15;;;;;;;6.97;5.40;;;;;;;;;;5049580;28;20414;-66
2023/08/20 03:44:42;;;;;;;8.07;5.38;;;;;;;;;;5050216;28;20053;-67
2023/08/20 03:47:10;;;;;;;10.70;4.90;;;;;;;;;;5049272;28;20049;-67
2023/08/20 03:49:36;;;;;;;5.10;4.60;;;;;;;;;;5048976;28;20505;-67
2023/08/20 03:52:03;;;;;;;7.00;4.97;;;;;;;;;;5049297;28;20049;-67
2023/08/20 03:54:30;;;;;;;7.82;4.95;;;;;;;;;;5049407;28;20249;-66
2023/08/20 03:56:57;;;;;;;7.90;5.13;;;;;;;;;;5049136;28;20781;-67
2023/08/20 03:59:23;;;;;;;7.63;4.88;;;;;;;;;;5049582;28;20049;-67
2023/08/20 04:01:50;;;;;;;8.23;5.03;;;;;;;;;;5048377;28;20045;-67
2023/08/20 04:04:18;;;;;;;9.05;5.53;;;;;;;;;;5049396;28;20056;-67
2023/08/20 04:06:45;;;;;;;7.03;4.65;;;;;;;;;;5049485;28;20041;-67
2023/08/20 04:09:11;;;;;;;7.35;4.65;;;;;;;;;;5048745;28;20498;-67
2023/08/20 04:11:38;;;;;;;6.57;4.88;;;;;;;;;;5048991;28;20041;-67
2023/08/20 04:14:04;;;;;;;7.53;4.75;;;;;;;;;;5049111;28;20041;-67
2023/08/20 04:16:31;;;;;;;7.97;4.45;;;;;;;;;;5049446;28;20521;-70
2023/08/20 04:18:57;;;;;;;7.47;5.40;;;;;;;;;;5049185;28;20509;-70
2023/08/20 04:21:25;;;;;;;7.07;5.18;;;;;;;;;;5051144;28;20049;-70
2023/08/20 04:23:52;;;;;;;7.55;4.82;;;;;;;;;;5052958;28;20069;-69
2023/08/20 04:26:19;;;;;;;8.55;5.53;;;;;;;;;;5053391;28;20584;-70
2023/08/20 04:28:45;;;;;;;8.38;4.95;;;;;;;;;;5053767;28;20044;-69
2023/08/20 04:31:12;;;;;;;9.13;5.18;;;;;;;;;;5052358;28;20525;-69
2023/08/20 04:33:38;;;;;;;6.88;4.80;;;;;;;;;;5053570;28;20041;-70
2023/08/20 04:36:05;;;;;;;9.63;5.15;;;;;;;;;;5052733;28;20044;-69
2023/08/20 04:38:33;;;;;;;5.75;4.63;;;;;;;;;;5052856;28;20049;-69
2023/08/20 04:41:00;;;;;;;7.90;5.10;;;;;;;;;;5051422;28;20052;-69
2023/08/20 04:43:26;;;;;;;8.38;4.90;;;;;;;;;;5053170;28;20044;-69
2023/08/20 04:45:53;;;;;;;10.40;5.13;;;;;;;;;;5052928;28;20051;-69
2023/08/20 04:48:20;;;;;;;7.68;5.18;;;;;;;;;;5052814;28;20045;-69
2023/08/20 04:50:48;;;;;;;11.07;5.75;;;;;;;;;;5052484;28;20084;-70
2023/08/20 04:53:14;;;;;;;7.15;4.95;;;;;;;;;;5052609;28;20055;-69
2023/08/20 04:55:42;;;;;;;8.25;5.20;;;;;;;;;;5052841;28;20411;-69
2023/08/20 04:58:09;;;;;;;7.10;5.32;;;;;;;;;;5052510;28;20203;-70
2023/08/20 05:00:35;;;;;;;7.03;5.82;;;;;;;;;;5052201;28;20060;-69
2023/08/20 05:03:02;;;;;;;9.27;5.38;;;;;;;;;;5052504;28;20063;-70
2023/08/20 05:05:29;;;;;;;7.57;6.25;;;;;;;;;;5052498;28;20041;-69
2023/08/20 05:07:55;;;;;;;6.32;5.65;;;;;;;;;;5052705;28;20048;-69
2023/08/20 05:10:22;;;;;;;8.25;6.20;;;;;;;;;;5051878;28;20384;-69
2023/08/20 05:12:49;;;;;;;8.00;5.47;;;;;;;;;;5052820;28;20435;-69
2023/08/20 05:15:16;;;;;;;6.70;5.25;;;;;;;;;;5051949;28;20483;-69
2023/08/20 05:17:43;;;;;;;7.80;5.35;;;;;;;;;;5052886;28;20135;-70
2023/08/20 05:20:10;;;;;;;8.52;5.30;;;;;;;;;;5051008;28;20406;-70
2023/08/20 05:22:37;;;;;;;9.52;5.57;;;;;;;;;;5052789;28;20127;-70
2023/08/20 05:25:03;;;;;;;8.70;5.13;;;;;;;;;;5052226;28;20049;-70
2023/08/20 05:27:30;;;;;;;7.05;5.20;;;;;;;;;;5052803;28;20083;-70
2023/08/20 05:29:58;;;;;;;7.78;5.43;;;;;;;;;;5051376;28;20063;-69
2023/08/20 05:32:24;;;;;;;6.70;5.43;;;;;;;;;;5051320;28;20055;-69
2023/08/20 05:34:51;;;;;;;7.85;4.95;;;;;;;;;;5052367;28;20053;-69
2023/08/20 05:37:18;;;;;;;7.28;4.90;;;;;;;;;;5051756;28;20045;-68
2023/08/20 05:39:45;;;;;;;8.15;5.45;;;;;;;;;;5051226;28;20049;-70
2023/08/20 05:42:11;;;;;;;8.95;5.07;;;;;;;;;;5051934;28;20120;-70
2023/08/20 05:44:38;;;;;;;9.35;5.43;;;;;;;;;;5052196;28;20052;-70
2023/08/20 05:47:06;;;;;;;9.18;5.40;;;;;;;;;;5051112;28;20041;-70
2023/08/20 05:49:32;;;;;;;8.88;5.65;;;;;;;;;;5051487;28;20414;-69
2023/08/20 05:51:59;;;;;;;8.10;5.57;;;;;;;;;;5051856;28;20071;-69
2023/08/20 05:54:26;;;;;;;6.90;5.30;;;;;;;;;;5052497;28;20372;-69
2023/08/20 05:56:52;;;;;;;7.40;5.30;;;;;;;;;;5051589;28;20048;-70
2023/08/20 05:59:19;;;;;;;10.73;5.57;;;;;;;;;;5051623;28;20045;-70
2023/08/20 06:01:45;;;;;;;8.93;5.70;;;;;;;;;;5050862;28;20141;-69
2023/08/20 06:04:13;;;;;;;9.40;5.72;;;;;;;;;;5051362;28;20071;-69
2023/08/20 06:06:40;;;;;;;8.60;6.13;;;;;;;;;;5051843;28;20041;-70
2023/08/20 06:09:07;;;;;;;10.20;6.35;;;;;;;;;;5051186;28;20045;-70
2023/08/20 06:11:33;;;;;;;7.43;5.57;;;;;;;;;;5050714;28;20303;-70
2023/08/20 06:14:00;;;;;;;8.82;6.00;;;;;;;;;;5051032;28;20041;-69
2023/08/20 06:16:26;;;;;;;7.43;5.35;;;;;;;;;;5051156;28;20049;-69
2023/08/20 06:18:53;;;;;;;8.27;6.10;;;;;;;;;;5051704;28;20215;-69
2023/08/20 06:21:21;;;;;;;8.07;5.80;;;;;;;;;;5050101;28;20045;-69
2023/08/20 06:23:47;;;;;;;9.88;5.30;;;;;;;;;;5051227;28;20444;-69
2023/08/20 06:26:14;;;;;;;5.72;4.93;;;;;;;;;;5050648;28;20436;-69
2023/08/20 06:28:40;;;;;;;11.07;5.40;;;;;;;;;;5051013;28;20045;-70
2023/08/20 06:31:07;;;;;;;8.38;4.97;;;;;;;;;;5049513;28;20041;-69
2023/08/20 06:33:34;;;;;;;7.88;5.15;;;;;;;;;;5051120;28;20045;-69
2023/08/20 06:36:00;;;;;;;9.95;5.55;;;;;;;;;;5050626;28;20051;-69
2023/08/20 06:38:28;;;;;;;7.82;5.10;;;;;;;;;;5050976;28;20053;-69
2023/08/20 06:40:55;;;;;;;10.05;5.25;;;;;;;;;;5050054;28;20041;-69
2023/08/20 06:43:21;;;;;;;8.48;4.40;;;;;;;;;;5049806;28;20048;-69
2023/08/20 06:45:48;;;;;;;4.97;4.47;;;;;;;;;;5050864;28;20045;-69
2023/08/20 06:48:16;;;;;;;9.52;4.93;;;;;;;;;;5050269;28;20055;-69
2023/08/20 06:50:43;;;;;;;6.50;5.50;;;;;;;;;;5050116;28;20129;-70
2023/08/20 06:53:09;;;;;;;12.48;5.20;;;;;;;;;;5050454;28;20045;-69
2023/08/20 06:55:37;;;;;;;7.30;5.72;;;;;;;;;;5050694;28;20053;-70
2023/08/20 06:58:04;;;;;;;7.20;5.75;;;;;;;;;;5050190;28;20051;-69
2023/08/20 07:00:31;;;;;;;8.90;6.10;;;;;;;;;;5049962;28;20049;-69
2023/08/20 07:02:57;;;;;;;6.93;5.57;;;;;;;;;;5050739;28;20135;-70
2023/08/20 07:05:24;;;;;;;8.30;5.35;;;;;;;;;;5050091;28;20041;-69
2023/08/20 07:07:50;;;;;;;5.93;5.32;;;;;;;;;;5050699;28;20051;-69
2023/08/20 07:10:17;;;;;;;7.43;5.53;;;;;;;;;;5049024;28;20298;-68
2023/08/20 07:12:45;;;;;;;6.90;5.72;;;;;;;;;;5050311;28;20045;-69
2023/08/20 07:15:11;;;;;;;12.10;5.95;;;;;;;;;;5049761;28;20045;-69
2023/08/20 07:17:39;;;;;;;7.15;5.78;;;;;;;;;;5050630;28;20182;-69
2023/08/20 07:20:07;;;;;;;6.25;5.57;;;;;;;;;;5048806;28;20052;-69
2023/08/20 07:22:34;;;;;;;7.72;5.95;;;;;;;;;;5050380;28;20471;-69
2023/08/20 07:25:00;;;;;;;7.57;5.90;;;;;;;;;;5050165;28;20044;-69
2023/08/20 07:27:27;;;;;;;7.95;5.70;;;;;;;;;;5049598;28;20055;-69
2023/08/20 07:29:55;;;;;;;6.75;6.05;;;;;;;;;;5049285;28;20045;-69
2023/08/20 07:32:22;;;;;;;7.60;6.40;;;;;;;;;;5049980;28;20045;-69
2023/08/20 07:34:48;;;;;;;8.10;5.75;;;;;;;;;;5049807;28;20048;-69
2023/08/20 07:37:15;;;;;;;8.57;6.28;;;;;;;;;;5049339;28;20049;-69
2023/08/20 07:39:41;;;;;;;7.32;6.20;;;;;;;;;;5049241;28;20390;-69
2023/08/20 07:42:08;;;;;;;8.75;6.25;;;;;;;;;;5049373;28;20052;-69
2023/08/20 07:44:34;;;;;;;7.28;6.32;;;;;;;;;;5050071;28;20049;-69
2023/08/20 07:47:02;;;;;;;8.40;6.40;;;;;;;;;;5049619;28;20522;-69
2023/08/20 07:49:29;;;;;;;9.05;7.00;;;;;;;;;;5048834;28;20051;-69
2023/08/20 07:51:56;;;;;;;9.10;7.25;;;;;;;;;;5049798;28;20128;-69
2023/08/20 07:54:22;;;;;;;10.05;6.85;;;;;;;;;;5049282;28;20052;-70
2023/08/20 07:56:49;;;;;;;7.97;6.68;;;;;;;;;;5049109;28;20312;-69
2023/08/20 07:59:15;;;;;;;10.18;5.80;;;;;;;;;;5033587;28;20046;-69
2023/08/20 08:01:42;;;;;;;8.85;6.40;;;;;;;;;;5029136;28;20064;-70
2023/08/20 08:04:09;;;;;;;10.68;5.68;;;;;;;;;;5029045;28;20060;-69
2023/08/20 08:06:36;;;;;;;8.77;6.00;;;;;;;;;;5029696;28;20056;-69
2023/08/20 08:09:21;;;;;;;6.72;5.68;;;;;;;;;;5029755;28;20045;-69
2023/08/20 08:11:47;;;;;;;6.95;6.00;;;;;;;;;;5028782;28;20052;-69
2023/08/20 08:14:14;;;;;;;6.45;5.28;;;;;;;;;;5029962;28;20393;-70
2023/08/20 08:16:41;;;;;;;7.75;5.18;;;;;;;;;;5029120;28;20057;-69
2023/08/20 08:19:07;;;;;;;8.27;5.43;;;;;;;;;;5028969;28;20049;-69
2023/08/20 08:21:35;;;;;;;6.18;5.35;;;;;;;;;;5028167;28;20050;-69
2023/08/20 08:24:02;;;;;;;6.13;5.13;;;;;;;;;;5029705;28;20049;-69
2023/08/20 08:26:29;;;;;;;6.10;5.47;;;;;;;;;;5038090;28;20049;-70
2023/08/20 08:28:55;;;;;;;6.70;5.28;;;;;;;;;;5049399;28;20275;-68
2023/08/20 08:31:22;;;;;;;9.70;5.90;;;;;;;;;;5048615;28;20045;-69
2023/08/20 08:33:48;;;;;;;9.23;5.38;;;;;;;;;;5049009;28;20045;-69
2023/08/20 08:36:16;;;;;;;7.00;4.75;;;;;;;;;;5049553;28;20045;-68
2023/08/20 08:38:44;;;;;;;7.97;5.10;;;;;;;;;;5048811;28;20136;-69
2023/08/20 08:41:12;;;;;;;7.68;4.72;;;;;;;;;;5048525;28;20484;-70
2023/08/20 08:43:39;;;;;;;7.15;4.82;;;;;;;;;;5049290;28;20406;-70
2023/08/20 08:46:07;;;;;;;6.10;4.40;;;;;;;;;;5049642;28;20045;-69
2023/08/20 08:48:35;;;;;;;4.45;3.83;;;;;;;;;;5048258;28;20048;-70
2023/08/20 08:51:03;;;;;;;7.90;5.60;;;;;;;;;;5048550;28;20410;-69
2023/08/20 08:53:32;;;;;;;5.70;5.10;;;;;;;;;;5049033;28;20512;-69
2023/08/20 08:56:00;;;;;;;6.00;5.05;;;;;;;;;;5046731;28;20055;-69
2023/08/20 08:58:26;;;;;;;7.57;5.47;;;;;;;;;;5048929;28;20057;-70
2023/08/20 09:00:53;;;;;;;7.20;5.95;;;;;;;;;;5047601;28;20053;-70
2023/08/20 09:03:20;;;;;;;6.80;4.93;;;;;;;;;;5049464;28;20415;-70
2023/08/20 09:05:48;;;;;;;7.55;5.25;;;;;;;;;;5048573;28;20041;-69
2023/08/20 09:08:20;;;;;;;5.80;5.20;;;;;;;;;;5052652;28;20041;-70
2023/08/20 09:10:47;;;;;;;9.80;5.07;;;;;;;;;;5051615;28;20048;-69
2023/08/20 09:13:15;;;;;;;5.68;5.10;;;;;;;;;;5052737;28;20059;-69
2023/08/20 09:15:41;;;;;;;7.45;5.47;;;;;;;;;;5051747;28;20053;-69
2023/08/20 09:18:10;;;;;;;6.47;4.55;;;;;;;;;;5052997;28;20051;-69
2023/08/20 09:20:38;;;;;;;5.55;4.70;;;;;;;;;;5051967;28;20049;-69
2023/08/20 09:23:04;;;;;;;6.82;5.10;;;;;;;;;;5052402;28;20517;-69
2023/08/20 09:25:31;;;;;;;5.28;4.78;;;;;;;;;;5051352;28;20048;-69
2023/08/20 09:27:58;;;;;;;6.68;4.70;;;;;;;;;;5051703;28;20045;-69
2023/08/20 09:30:26;;;;;;;5.97;4.75;;;;;;;;;;5051616;28;20135;-69
2023/08/20 09:33:05;;;;;;;6.32;4.93;;;;;;;;;;5051984;28;20053;-70
2023/08/20 09:35:32;;;;;;;7.13;4.70;;;;;;;;;;5052503;28;20470;-69
2023/08/20 09:38:03;;;;;;;5.93;3.47;;;;;;;;;;5051811;28;20071;-69
2023/08/20 09:40:30;;;;;;;5.53;4.50;;;;;;;;;;5051442;28;20426;-69
2023/08/20 09:42:57;;;;;;;6.05;4.70;;;;;;;;;;5051549;28;20277;-69
2023/08/20 09:45:28;;;;;;;5.05;4.57;;;;;;;;;;5052104;28;20048;-69
2023/08/20 09:47:57;;;;;;;7.28;4.93;;;;;;;;;;5052160;28;20380;-69
2023/08/20 09:50:24;;;;;;;6.03;4.95;;;;;;;;;;5050618;28;20045;-69
2023/08/20 09:52:58;;;;;;;4.30;3.80;;;;;;;;;;5052081;28;20045;-69
2023/08/20 09:55:30;;;;;;;6.47;4.38;;;;;;;;;;5048917;28;20402;-70
2023/08/20 09:57:57;;;;;;;5.30;4.28;;;;;;;;;;5028914;28;20056;-69
2023/08/20 10:00:25;;;;;;;4.70;3.80;;;;;;;;;;5030941;28;20052;-69
2023/08/20 10:02:53;;;;;;;5.95;5.00;;;;;;;;;;5032092;28;20060;-70
2023/08/20 10:05:20;;;;;;;5.25;4.75;;;;;;;;;;5030937;28;20060;-69
2023/08/20 10:07:48;;;;;;;7.15;4.43;;;;;;;;;;5031819;28;20053;-69
2023/08/20 10:10:16;;;;;;;5.00;4.50;;;;;;;;;;5030567;28;20281;-69
2023/08/20 10:12:44;;;;;;;4.60;4.18;;;;;;;;;;5031858;28;20072;-69
2023/08/20 10:15:13;;;;;;;4.78;3.65;;;;;;;;;;5045303;23;20029;-68
2023/08/20 10:17:43;;;;;;;4.22;3.70;;;;;;;;;;5051491;28;20383;-68
2023/08/20 10:20:11;;;;;;;4.78;3.95;;;;;;;;;;5051479;28;20410;-68
2023/08/20 10:22:38;;;;;;;4.35;3.95;;;;;;;;;;5052042;28;20419;-68
2023/08/20 10:25:07;;;;;;;4.68;4.22;;;;;;;;;;5051922;28;20441;-68
2023/08/20 10:27:37;;;;;;;4.10;3.78;;;;;;;;;;5049828;28;20055;-68
2023/08/20 10:30:15;;;;;;;5.82;3.90;;;;;;;;;;5051478;28;20055;-68
2023/08/20 10:32:50;;;;;;;4.95;4.45;;;;;;;;;;5050869;28;20084;-68
2023/08/20 10:35:17;;;;;;;5.05;3.88;;;;;;;;;;5051488;28;20047;-68
2023/08/20 10:38:03;;;;;;;4.47;3.50;;;;;;;;;;5051491;28;20509;-68
2023/08/20 10:40:49;;;;;;;4.05;3.72;;;;;;;;;;5051715;28;20049;-69
2023/08/20 10:43:27;;;;;;;4.97;4.03;;;;;;;;;;5050964;28;20053;-68
2023/08/20 10:46:06;;;;;;;4.90;3.58;;;;;;;;;;5051776;28;20501;-68
2023/08/20 10:48:36;;;;;;;5.43;3.45;;;;;;;;;;5031008;28;20523;-68
2023/08/20 10:51:10;;;;;;;4.20;3.67;;;;;;;;;;5031381;28;20046;-68
2023/08/20 10:53:37;;;;;;;3.30;3.00;;;;;;;;;;5031365;28;20050;-68
2023/08/20 10:56:14;;;;;;;3.45;3.15;;;;;;;;;;5035553;28;20052;-68
2023/08/20 10:58:46;;;;;;;3.35;2.75;;;;;;;;;;5051261;28;20067;-68
2023/08/20 11:01:18;;;;;;;3.80;2.72;;;;;;;;;;5050248;28;20055;-68
2023/08/20 11:03:48;;;;;;;3.00;2.30;;;;;;;;;;5050914;28;20048;-68
2023/08/20 11:06:15;;;;;;;3.65;2.58;;;;;;;;;;5050445;28;20099;-68
2023/08/20 11:08:43;;;;;;;2.60;2.30;;;;;;;;;;5051637;28;20501;-68
2023/08/20 11:11:10;;;;;;;2.67;2.33;;;;;;;;;;5050148;28;20049;-68
2023/08/20 11:13:37;;;;;;;3.03;2.50;;;;;;;;;;5051161;28;20076;-68
2023/08/20 11:16:05;;;;;;;3.78;2.30;;;;;;;;;;5050021;28;20072;-68
2023/08/20 11:18:33;;;;;;;4.05;2.80;;;;;;;;;;5050699;28;20052;-68
2023/08/20 11:21:02;;;;;;;2.88;2.55;;;;;;;;;;5050847;28;20049;-68
2023/08/20 11:23:29;;;;;;;2.50;2.30;;;;;;;;;;5050820;28;20040;-68
2023/08/20 11:25:56;;;;;;;2.20;2.00;;;;;;;;;;5050727;28;20136;-68
2023/08/20 11:28:23;;;;;;;3.78;2.25;;;;;;;;;;5050257;28;20131;-68
2023/08/20 11:30:50;;;;;;;3.10;2.00;;;;;;;;;;5050191;28;20487;-68
2023/08/20 11:33:17;;;;;;;2.15;1.88;;;;;;;;;;5050599;28;20410;-68
2023/08/20 11:35:45;;;;;;;3.70;2.47;;;;;;;;;;5050607;28;20052;-68
2023/08/20 11:38:13;;;;;;;3.30;2.40;;;;;;;;;;5050212;28;20041;-68
2023/08/20 11:40:39;;;;;;;3.00;2.00;;;;;;;;;;5050827;28;20051;-68
2023/08/20 11:43:06;;;;;;;2.75;2.45;;;;;;;;;;5050365;28;20045;-68
2023/08/20 11:45:33;;;;;;;4.72;2.10;;;;;;;;;;5050835;28;20370;-68
2023/08/20 11:48:00;;;;;;;2.50;2.30;;;;;;;;;;5050695;28;20049;-68
2023/08/20 11:50:27;;;;;;;3.00;2.03;;;;;;;;;;5050123;28;20457;-68
2023/08/20 11:52:54;;;;;;;4.05;2.33;;;;;;;;;;5050460;28;20045;-69
2023/08/20 11:55:28;;;;;;;2.97;2.15;;;;;;;;;;5049830;28;20052;-68
2023/08/20 11:57:55;;;;;;;3.80;2.10;;;;;;;;;;5050323;28;20052;-68
2023/08/20 12:00:26;;;;;;;3.22;2.22;;;;;;;;;;5049407;28;20499;-68
2023/08/20 12:02:53;;;;;;;2.33;2.13;;;;;;;;;;5050462;28;20049;-67
2023/08/20 12:05:20;;;;;;;4.07;2.20;;;;;;;;;;5049611;28;20049;-68
2023/08/20 12:07:55;;;;;;;2.75;2.05;;;;;;;;;;5050408;28;20482;-68
2023/08/20 12:10:25;;;;;;;3.22;2.50;;;;;;;;;;5049889;28;20052;-68
2023/08/20 12:12:51;;;;;;;4.95;2.78;;;;;;;;;;5050108;28;20045;-68
2023/08/20 12:15:18;;;;;;;2.67;2.25;;;;;;;;;;5050126;28;20486;-68
2023/08/20 12:17:45;;;;;;;3.28;1.98;;;;;;;;;;5049937;28;20099;-68
2023/08/20 12:20:12;;;;;;;3.20;2.35;;;;;;;;;;5050028;28;20055;-68
2023/08/20 12:22:39;;;;;;;4.03;2.35;;;;;;;;;;5049936;28;20110;-68
2023/08/20 12:25:06;;;;;;;3.70;2.45;;;;;;;;;;5049952;28;20447;-68
2023/08/20 12:27:34;;;;;;;4.43;2.70;;;;;;;;;;5049834;28;20079;-68
2023/08/20 12:30:01;;;;;;;3.35;2.40;;;;;;;;;;5050137;28;20060;-68
2023/08/20 12:32:27;;;;;;;3.08;2.25;;;;;;;;;;5050416;28;20422;-68
2023/08/20 12:34:54;;;;;;;2.35;2.15;;;;;;;;;;5049765;28;20041;-68
2023/08/20 12:37:20;;;;;;;2.38;2.00;;;;;;;;;;5050564;28;20430;-68
2023/08/20 12:39:47;;;;;;;3.22;2.22;;;;;;;;;;5049371;28;20508;-68
2023/08/20 12:42:14;;;;;;;4.13;2.60;;;;;;;;;;5052006;28;20517;-68
2023/08/20 12:44:41;;;;;;;2.90;2.20;;;;;;;;;;5053449;28;20520;-68
2023/08/20 12:47:08;;;;;;;4.30;2.38;;;;;;;;;;5054067;28;20144;-68
2023/08/20 12:49:35;;;;;;;4.20;2.35;;;;;;;;;;5053339;28;20049;-68
2023/08/20 12:52:02;;;;;;;4.40;2.50;;;;;;;;;;5053855;28;20067;-68
2023/08/20 12:54:29;;;;;;;2.53;2.33;;;;;;;;;;5053504;28;20052;-68
2023/08/20 12:56:56;;;;;;;2.67;2.10;;;;;;;;;;5053430;28;20044;-68
2023/08/20 12:59:22;;;;;;;2.30;2.10;;;;;;;;;;5053184;28;20041;-68
2023/08/20 13:01:50;;;;;;;2.60;2.40;;;;;;;;;;5052893;28;20055;-68
2023/08/20 13:04:17;;;;;;;2.53;2.30;;;;;;;;;;5053433;28;20040;-68
2023/08/20 13:06:44;;;;;;;4.68;2.33;;;;;;;;;;5052992;28;20041;-68
2023/08/20 13:09:11;;;;;;;3.33;1.90;;;;;;;;;;5053478;28;20063;-68
2023/08/20 13:11:39;;;;;;;2.08;1.80;;;;;;;;;;5052925;28;20495;-68
2023/08/20 13:14:06;;;;;;;2.15;1.88;;;;;;;;;;5053465;28;20136;-68
2023/08/20 13:16:34;;;;;;;3.17;1.73;;;;;;;;;;5052931;28;20044;-66
2023/08/20 13:19:02;;;;;;;5.82;1.73;;;;;;;;;;5052771;28;20080;-66
2023/08/20 13:21:29;;;;;;;2.95;1.90;;;;;;;;;;5052972;28;20470;-69
2023/08/20 13:23:55;;;;;;;1.80;1.52;;;;;;;;;;5053252;28;20051;-69
2023/08/20 13:26:22;;;;;;;2.35;1.85;;;;;;;;;;5053221;28;20048;-69
2023/08/20 13:28:49;;;;;;;4.32;1.67;;;;;;;;;;5052619;28;20045;-69
2023/08/20 13:31:15;;;;;;;4.15;1.80;;;;;;;;;;5053246;28;20047;-69
2023/08/20 13:33:42;;;;;;;2.40;1.40;;;;;;;;;;5052910;28;20049;-69
2023/08/20 13:36:10;;;;;;;1.75;1.58;;;;;;;;;;5053076;28;20049;-69
2023/08/20 13:38:36;;;;;;;1.70;1.50;;;;;;;;;;5053283;28;20088;-69
2023/08/20 13:41:03;;;;;;;1.88;1.63;;;;;;;;;;5052701;28;20045;-69
2023/08/20 13:43:29;;;;;;;1.63;1.52;;;;;;;;;;5053335;28;20049;-69
2023/08/20 13:45:56;;;;;;;3.15;1.70;;;;;;;;;;5052803;28;20095;-69
2023/08/20 13:48:22;;;;;;;2.22;1.30;;;;;;;;;;5052732;28;20053;-69
2023/08/20 13:50:49;;;;;;;2.53;1.80;;;;;;;;;;5052650;28;20055;-69
2023/08/20 13:53:17;;;;;;;1.85;1.60;;;;;;;;;;5052554;28;20049;-69
2023/08/20 13:55:44;;;;;;;1.70;1.60;;;;;;;;;;5052069;28;20055;-69
2023/08/20 13:58:10;;;;;;;1.83;1.55;;;;;;;;;;5052361;28;20045;-69
2023/08/20 14:00:37;;;;;;;3.22;1.73;;;;;;;;;;5052422;28;20052;-69
2023/08/20 14:03:04;;;;;;;1.60;1.40;;;;;;;;;;5053295;28;20088;-69
2023/08/20 14:05:31;;;;;;;2.28;1.60;;;;;;;;;;5053424;28;20106;-69
2023/08/20 14:07:57;;;;;;;1.83;1.50;;;;;;;;;;5052817;28;20080;-68
2023/08/20 14:10:25;;;;;;;2.70;1.45;;;;;;;;;;5053352;28;20061;-69
2023/08/20 14:12:52;;;;;;;2.28;1.40;;;;;;;;;;5051895;28;20045;-69
2023/08/20 14:15:18;;;;;;;1.30;1.20;;;;;;;;;;5051965;28;20080;-69
2023/08/20 14:17:46;;;;;;;3.35;1.70;;;;;;;;;;5051673;28;20045;-69
2023/08/20 14:20:13;;;;;;;1.95;1.17;;;;;;;;;;5052151;28;20433;-66
2023/08/20 14:22:40;;;;;;;1.88;1.35;;;;;;;;;;5052170;28;20072;-66
2023/08/20 14:25:07;;;;;;;3.00;1.38;;;;;;;;;;5051430;28;20383;-69
2023/08/20 14:27:34;;;;;;;2.03;1.52;;;;;;;;;;5051899;28;20123;-67
2023/08/20 14:30:02;;;;;;;2.10;1.40;;;;;;;;;;5051671;28;20041;-66
2023/08/20 14:32:29;;;;;;;2.58;1.40;;;;;;;;;;5052142;28;20456;-67
2023/08/20 14:34:55;;;;;;;3.15;1.50;;;;;;;;;;5051234;28;20107;-67
2023/08/20 14:37:22;;;;;;;2.28;1.33;;;;;;;;;;5052006;28;20041;-67
2023/08/20 14:39:50;;;;;;;1.75;1.25;;;;;;;;;;5051110;28;20139;-67
2023/08/20 14:42:16;;;;;;;2.13;1.48;;;;;;;;;;5051685;28;20044;-67
2023/08/20 14:44:44;;;;;;;2.70;1.50;;;;;;;;;;5051407;28;20044;-66